This demonstration page uses our WeatherBlox Daily Observations layout. Learn more.

39.29038, -76.61219

Hourly Observations for April 21, 2016

Temp ( °F °C ) Dew Point ( °F °C ) Humidity (%) Winds ( mph kmh ) Pressure ( in mb ) Visibility ( mi km ) Precip ( " mm )
12:54 am 00:54 undefined 55 12.8 39 3.9 55 55 undefined N/A 30.23 1024 N/A 0 0
1:54 am 01:54 undefined 53 11.7 39 3.9 59 59 undefined N/A 30.22 1023 N/A 0 0
2:54 am 02:54 undefined 52 11.1 38 3.3 59 59 undefined N/A 30.21 1023 N/A 0 0
3:54 am 03:54 undefined 51 10.6 36 2.2 56 56 undefined N/A 30.21 1023 N/A 0 0
4:54 am 04:54 undefined 51 10.6 36 2.2 56 56 undefined N/A 30.2 1023 N/A 0 0
5:54 am 05:54 undefined 50 10 36 2.2 59 59 undefined N/A 30.2 1023 N/A 0 0
6:54 am 06:54 undefined 50 10 36 2.2 59 59 undefined N/A 30.2 1023 N/A 0 0
7:54 am 07:54 undefined 52 11.1 35 1.7 53 53 undefined N/A 30.2 1023 N/A 0 0
8:54 am 08:54 undefined 57 13.9 28 -2.2 33 33 undefined N/A 30.19 1022 N/A 0 0
9:54 am 09:54 undefined 60 15.6 28 -2.2 30 30 undefined N/A 30.17 1022 N/A 0 0
10:54 am 10:54 undefined 62 16.7 28 -2.2 28 28 undefined N/A 30.16 1021 N/A 0 0
11:54 am 11:54 undefined 64 17.8 35 1.7 34 34 undefined N/A 30.13 1020 N/A 0 0
12:54 pm 12:54 undefined 69 20.6 45 7.2 42 42 undefined N/A 30.09 1019 N/A 0 0
1:54 pm 13:54 undefined 70 21.1 48 8.9 46 46 undefined N/A 30.07 1018 N/A 0 0
2:54 pm 14:54 undefined 72 22.2 48 8.9 43 43 undefined N/A 30.04 1017 N/A 0 0
3:54 pm 15:54 undefined 72 22.2 49 9.4 44 44 undefined N/A 30.02 1017 N/A 0 0
4:54 pm 16:54 undefined 71 21.7 51 10.6 49 49 undefined N/A 30 1016 N/A 0 0
5:54 pm 17:54 undefined 69 20.6 53 11.7 57 57 undefined N/A 30 1016 N/A 0 0
6:54 pm 18:54 undefined 70 21.1 54 12.2 57 57 undefined N/A 30 1016 N/A 0 0
7:54 pm 19:54 undefined 68 20 54 12.2 61 61 undefined N/A 30 1016 N/A 0 0
8:54 pm 20:54 undefined 67 19.4 55 12.8 66 66 undefined N/A 30 1016 N/A 0 0
9:54 pm 21:54 undefined 66 18.9 56 13.3 70 70 undefined N/A 30 1016 N/A 0 0
10:54 pm 22:54 undefined 65 18.3 56 13.3 73 73 undefined N/A 29.99 1016 N/A 0 0
11:54 pm 23:54 undefined 64 17.8 56 13.3 75 75 undefined N/A 29.98 1015 N/A 0 0

Powered by AerisWeather